Mount Pleasant, UT

11:26 PM MST on November 28, 2014 (GMT -0700)
KUTSPRIN7 | Change Station
CLOSE
Current Station
Personal Weather Station
Location: Spring City, UT
Elevation: 5843 ft
Nearby Weather Stations

Elev 5843 ft 39.48 °N, 111.49 °W | Updated 11 minutes ago

Clear
Clear
38.6 °F
Feels Like 39 °F
N
1.0
Wind Variable Wind from ESE
Gusts 5.0 mph

Today
High -- | Low -- °F
--% Chance of Precip.
Yesterday
High -- | Low -- °F
Precip. -- in
7:24 AM 5:03 PM
Waxing Crescent, 48% visible
Pressure 30.02 in
Visibility 10.0 miles
Clouds Clear
Windchill 39 °F
Dew Point 20 °F
Humidity 46%
Rainfall 0.00 in
Snow Depth Not available.
UV 0.0 out of 12
Pollen .10 out of 12
Air Quality Not available.
Flu Activity Not available.
METAR KPUC 290553Z AUTO 03008KT 10SM CLR M01/M06 A2996 RMK AO2 SLP164 T10061061 10072 21006 56009

More Conditions Fewer Conditions

Pressure 30.02 in
Visibility 10.0 miles
Clouds Clear
Windchill 39 °F
Dew Point 20 °F
Humidity 46%
Rainfall 0.00 in
Snow Depth Not available.
UV 0.0 out of 12
Pollen .10 out of 12
Air Quality Not available.
Flu Activity Not available.
METAR KPUC 290553Z AUTO 03008KT 10SM CLR M01/M06 A2996 RMK AO2 SLP164 T10061061 10072 21006 56009

More Conditions Fewer Conditions

10-Day Weather Forecast

Almanac

Astronomy

Nov. 28, 2014 Rise Set
Actual Time
Civil Twilight
Nautical Twilight
Astronomical Twilight
Moon
Length of Visible Light
Length of Day
Tomorrow will be .
, % of the Moon is Illuminated

Today's Extremes

State Highs State Lows

Community

WunderPhotos

Upload Photos

1,774,428 photos uploaded!

WunderBlogs® & News

Nearby

Air Quality

  Air Quality AQ Index Pollutant
Not available.

Snow Depth

Station Depth Elevation

Earthquake Activity

City Distance Mag. Time & Date
Minimum magnitude displayed is 2.5.

Coastal Water Temperatures

Place Temperature

Nearby Weather Stations